Search for airport 
image banner adimage banner adimage banner ad
image banner ad

CA11 - Bodad

Located in Chilcoot, United States

ICAO - CA11, IATA -

Data provided by Airmate  

General information

Coordinates: N39°59'50" W120°13'1"
Elevation is 5909 feet MSL.
 
View others Airports in California

Operational data

Special qualification required
Current time UTC:
Current local time:
Weather at : KRTS - Reno/Stead ( 47 km )
METAR: KRTS 211155Z AUTO 35006KT 10SM CLR 16/M03 A3011 RMK AO2
View NOTAMs / SUP AIP / TFR affecting this airport [VIEW]
Communications frequencies: [VIEW]

Runways:

RWY identifierQFULength (ft)Width (ft)SurfaceLDA (ft)
15103240GRASS
33103240GRASS

Airport contact information

Address: Chilcoot United States

Satellite view of CA11